Time;durP1;ratioP1;P1;durP2;ratioP2;P2;SDS_P1;SDS_P2;PMS_P1;PMS_P2;Temp;Humidity;BMP_temperature;BMP_pressure;BME280_temperature;BME280_humidity;BME280_pressure;Samples;Min_cycle;Max_cycle;Signal;HPM_P1;HPM_P2
2022/05/16 00:00:25;;;;;;;3.03;1.98;;;;;;;18.92;62.43;96617.38;10494184;28;20115;-23
2022/05/16 00:05:26;;;;;;;3.20;2.13;;;;;;;18.70;61.87;96628.41;10492501;28;20028;-23
2022/05/16 00:10:27;;;;;;;3.70;2.83;;;;;;;18.65;61.79;96630.97;10473939;28;20059;-22
2022/05/16 00:15:28;;;;;;;2.78;2.28;;;;;;;18.98;62.15;96624.94;10451509;28;20047;-22
2022/05/16 00:20:29;;;;;;;3.92;2.20;;;;;;;18.88;61.34;96634.28;10452012;28;20056;-23
2022/05/16 00:25:29;;;;;;;2.75;2.10;;;;;;;18.64;61.38;96641.94;10471336;28;20053;-23
2022/05/16 00:30:30;;;;;;;2.20;2.00;;;;;;;18.59;61.65;96632.66;10451911;28;20094;-24
2022/05/16 00:35:31;;;;;;;3.05;2.00;;;;;;;18.49;62.50;96636.91;10490613;28;20334;-23
2022/05/16 00:40:32;;;;;;;2.67;2.13;;;;;;;18.49;62.07;96631.00;10480268;28;20399;-23
2022/05/16 00:45:33;;;;;;;2.67;2.38;;;;;;;18.60;61.84;96629.28;10490064;28;20060;-22
2022/05/16 00:50:39;;;;;;;2.05;1.85;;;;;;;18.58;61.61;96620.84;10456239;28;20029;-23
2022/05/16 00:55:42;;;;;;;5.17;2.60;;;;;;;18.54;61.22;96629.28;10462801;28;20135;-24
2022/05/16 01:00:44;;;;;;;2.65;1.95;;;;;;;18.52;61.93;96616.63;10491976;28;20036;-23
2022/05/16 01:05:45;;;;;;;2.65;2.45;;;;;;;18.70;62.02;96610.66;10467045;28;20025;-22
2022/05/16 01:10:46;;;;;;;1.80;1.70;;;;;;;18.80;61.34;96612.31;10450123;28;20040;-24
2022/05/16 01:15:49;;;;;;;2.92;2.35;;;;;;;18.56;61.83;96609.84;10450053;28;20123;-23
2022/05/16 01:21:30;;;;;;;4.00;2.47;;;;;;;18.49;61.97;96610.72;10483573;28;20048;-22
2022/05/16 01:26:32;;;;;;;1.98;1.77;;;;;;;18.36;62.62;96603.97;10462485;28;20041;-22
2022/05/16 01:31:33;;;;;;;3.78;2.10;;;;;;;18.43;62.27;96613.25;10450178;28;20072;-23
2022/05/16 01:36:33;;;;;;;3.22;1.92;;;;;;;18.36;62.75;96616.66;10448806;28;20495;-23
2022/05/16 01:41:34;;;;;;;2.47;2.03;;;;;;;18.33;63.18;96622.56;10449603;28;20115;-23
2022/05/16 01:46:39;;;;;;;2.63;1.97;;;;;;;18.36;62.86;96624.25;10449585;28;20738;-22
2022/05/16 01:51:40;;;;;;;3.00;1.98;;;;;;;18.35;62.42;96618.31;10449974;28;20039;-23
2022/05/16 01:56:40;;;;;;;2.40;2.17;;;;;;;18.50;62.49;96622.53;10477896;28;20039;-23
2022/05/16 02:01:40;;;;;;;3.47;1.87;;;;;;;18.57;62.22;96616.63;10490951;28;20067;-24
2022/05/16 02:06:41;;;;;;;2.47;1.97;;;;;;;18.59;61.73;96627.59;10454497;28;20678;-23
2022/05/16 02:11:41;;;;;;;1.87;1.67;;;;;;;18.57;62.38;96621.69;10448861;28;20402;-23
2022/05/16 02:16:41;;;;;;;2.00;1.80;;;;;;;18.56;61.91;96619.97;10448192;28;20041;-23
2022/05/16 02:27:01;;;;;;;3.13;2.22;;;;;;;18.51;62.13;96619.16;10465190;28;20403;-24
2022/05/16 02:32:02;;;;;;;3.83;1.98;;;;;;;18.46;62.68;96598.91;10456518;28;20043;-24
2022/05/16 02:37:05;;;;;;;2.35;1.80;;;;;;;18.56;62.40;96607.31;10456463;28;20036;-23
2022/05/16 02:42:05;;;;;;;8.77;2.15;;;;;;;18.57;62.12;96619.16;10456189;28;20037;-23
2022/05/16 02:47:06;;;;;;;4.50;2.20;;;;;;;18.56;61.81;96627.59;10455944;28;20025;-22
2022/05/16 02:52:07;;;;;;;3.38;2.20;;;;;;;18.58;62.06;96633.53;10455592;28;20517;-24
2022/05/16 02:57:08;;;;;;;2.33;1.92;;;;;;;18.61;61.96;96636.03;10487613;28;20036;-23
2022/05/16 03:02:11;;;;;;;2.70;2.10;;;;;;;18.58;61.68;96641.13;10496307;28;20449;-23
2022/05/16 03:07:11;;;;;;;2.38;2.10;;;;;;;18.56;62.28;96641.13;10457439;28;20029;-23
2022/05/16 03:12:11;;;;;;;2.30;2.10;;;;;;;18.53;62.16;96632.69;10487836;28;20402;-22
2022/05/16 03:17:13;;;;;;;2.53;2.25;;;;;;;18.45;62.09;96649.59;10493149;28;20378;-22
2022/05/16 03:22:14;;;;;;;2.88;2.22;;;;;;;18.41;62.52;96637.78;10467791;28;20123;-23
2022/05/16 03:27:15;;;;;;;4.80;2.20;;;;;;;18.29;62.53;96625.06;10461054;28;20043;-23
2022/05/16 03:32:15;;;;;;;5.00;2.47;;;;;;;18.39;62.71;96636.91;10454647;28;20501;-23
2022/05/16 03:37:17;;;;;;;2.75;2.03;;;;;;;18.37;62.72;96642.00;10453915;28;20366;-22
2022/05/16 03:42:18;;;;;;;2.83;1.92;;;;;;;18.22;62.41;96620.84;10463795;28;20029;-24
2022/05/16 03:47:18;;;;;;;3.53;2.15;;;;;;;18.49;62.52;96636.91;10480303;28;20048;-23
2022/05/16 03:52:19;;;;;;;3.23;2.43;;;;;;;18.54;62.39;96644.50;10453052;28;20033;-24
2022/05/16 03:57:21;;;;;;;3.13;2.15;;;;;;;18.53;62.35;96651.28;10479103;28;20082;-23
2022/05/16 04:02:21;;;;;;;3.58;2.42;;;;;;;18.49;61.98;96651.28;10490557;28;20082;-22
2022/05/16 04:07:23;;;;;;;4.57;2.00;;;;;;;18.41;62.46;96652.97;10452512;28;20082;-23
2022/05/16 04:12:23;;;;;;;5.32;2.60;;;;;;;18.33;62.65;96647.91;10473683;28;20799;-23
2022/05/16 04:17:23;;;;;;;3.87;2.60;;;;;;;18.32;62.73;96645.38;10483821;28;20046;-23
2022/05/16 04:22:24;;;;;;;3.90;2.30;;;;;;;18.27;63.14;96641.97;10480322;28;20040;-23
2022/05/16 04:27:24;;;;;;;3.60;2.23;;;;;;;18.27;62.89;96655.50;10479445;28;20119;-24
2022/05/16 04:32:25;;;;;;;3.88;2.45;;;;;;;18.25;63.38;96669.81;10478238;28;20028;-24
2022/05/16 04:37:26;;;;;;;3.70;2.37;;;;;;;18.24;63.31;96659.72;10477716;28;20040;-24
2022/05/16 04:42:42;;;;;;;3.15;2.40;;;;;;;18.38;62.76;96665.63;10467914;28;20290;-25
2022/05/16 04:47:45;;;;;;;4.50;2.57;;;;;;;18.38;62.45;96655.50;10472109;28;20025;-23
2022/05/16 04:52:46;;;;;;;2.58;2.38;;;;;;;18.25;63.29;96658.88;10450508;28;20055;-23
2022/05/16 04:57:47;;;;;;;2.72;2.38;;;;;;;18.43;62.92;96674.09;10481005;28;20120;-24
2022/05/16 05:02:48;;;;;;;4.43;2.53;;;;;;;18.44;63.38;96679.19;10475756;28;20135;-24
2022/05/16 05:07:48;;;;;;;6.07;2.90;;;;;;;18.68;63.83;96689.25;10491750;28;20115;-21
2022/05/16 05:18:08;;;;;;;3.28;2.42;;;;;;;18.39;62.58;96705.34;10476480;28;20032;-24
2022/05/16 05:23:08;;;;;;;4.32;2.80;;;;;;;18.32;62.90;96714.66;10490333;28;20043;-24
2022/05/16 05:28:08;;;;;;;4.23;2.60;;;;;;;18.48;62.51;96733.22;10450053;28;20037;-23
2022/05/16 05:33:09;;;;;;;5.07;2.90;;;;;;;18.68;62.34;96729.84;10449110;28;20033;-23
2022/05/16 05:38:09;;;;;;;5.80;3.42;;;;;;;18.85;62.93;96737.44;10449659;28;20040;-24
2022/05/16 05:43:10;;;;;;;8.33;3.27;;;;;;;18.92;61.85;96745.03;10449351;28;20062;-22
2022/05/16 05:48:10;;;;;;;5.35;2.65;;;;;;;18.78;61.66;96751.84;10449782;28;20052;-23
2022/05/16 05:53:11;;;;;;;3.97;2.75;;;;;;;18.55;62.09;96767.88;10449390;28;20037;-22
2022/05/16 05:58:11;;;;;;;4.17;3.23;;;;;;;18.52;62.30;96763.69;10491726;28;20040;-23
2022/05/16 06:03:12;;;;;;;4.60;2.50;;;;;;;18.52;61.87;96755.22;10498043;28;20024;-23
2022/05/16 06:08:12;;;;;;;4.13;2.85;;;;;;;18.57;61.71;96761.16;10498087;28;20518;-22
2022/05/16 06:13:13;;;;;;;3.72;2.63;;;;;;;18.52;61.92;96772.97;10457421;28;20037;-23
2022/05/16 06:18:14;;;;;;;4.40;2.70;;;;;;;18.43;62.01;96778.03;10457348;28;20033;-23
2022/05/16 06:23:14;;;;;;;3.70;2.75;;;;;;;18.46;61.70;96793.22;10477564;28;20082;-23
2022/05/16 06:28:17;;;;;;;4.23;3.80;;;;;;;18.50;61.56;96794.94;10456631;28;20036;-23
2022/05/16 06:33:20;;;;;;;4.63;2.80;;;;;;;18.56;61.86;96789.84;10456027;28;20299;-23
2022/05/16 06:38:25;;;;;;;3.80;2.70;;;;;;;18.82;61.26;96798.34;10456863;28;20040;-24
2022/05/16 06:43:27;;;;;;;4.18;2.88;;;;;;;18.74;61.49;96792.44;10496600;28;20044;-24
2022/05/16 06:48:29;;;;;;;4.20;2.75;;;;;;;18.67;61.82;96783.13;10471651;28;20123;-23
2022/05/16 06:53:30;;;;;;;3.28;2.55;;;;;;;18.62;61.44;96800.00;10454979;28;20033;-23
2022/05/16 06:58:31;;;;;;;4.93;2.92;;;;;;;18.48;62.16;96794.94;10494631;28;20033;-23
2022/05/16 07:03:32;;;;;;;4.60;2.80;;;;;;;18.38;62.33;96789.84;10493304;28;20314;-24
2022/05/16 07:08:33;;;;;;;6.20;3.00;;;;;;;18.41;62.10;96789.88;10490095;28;20303;-25
2022/05/16 07:13:34;;;;;;;7.13;3.03;;;;;;;18.36;62.13;96806.75;10452656;28;20087;-22
2022/05/16 07:18:34;;;;;;;4.78;2.60;;;;;;;18.47;61.81;96812.66;10469857;28;20037;-23
2022/05/16 07:23:35;;;;;;;5.47;3.13;;;;;;;18.65;62.06;96815.22;10489119;28;20112;-23
2022/05/16 07:28:35;;;;;;;3.42;2.75;;;;;;;18.88;61.42;96823.69;10451923;28;20033;-23
2022/05/16 07:33:36;;;;;;;3.17;2.55;;;;;;;18.94;61.30;96836.38;10451354;28;20503;-24
2022/05/16 07:38:37;;;;;;;6.90;2.60;;;;;;;19.11;62.96;96839.75;10451691;28;20041;-23
2022/05/16 07:43:37;;;;;;;3.53;2.58;;;;;;;19.12;62.74;96838.91;10451075;28;20100;-22
2022/05/16 07:48:38;;;;;;;3.30;2.80;;;;;;;18.81;61.17;96849.88;10416360;28;1057418;-23
2022/05/16 07:53:38;;;;;;;6.13;2.80;;;;;;;18.86;61.05;96860.91;10452722;28;20084;-22
2022/05/16 07:58:38;;;;;;;4.40;2.77;;;;;;;18.89;62.60;96859.22;10489921;28;20032;-23
2022/05/16 08:03:39;;;;;;;7.13;2.90;;;;;;;19.15;63.76;96872.75;10476864;28;20839;-23
2022/05/16 08:13:58;;;;;;;6.38;2.55;;;;;;;18.64;61.44;96894.69;10452330;28;20723;-24
2022/05/16 08:18:59;;;;;;;3.57;2.63;;;;;;;18.55;61.68;96910.72;10451310;28;20033;-24
2022/05/16 08:24:01;;;;;;;4.15;2.80;;;;;;;18.62;61.20;96916.66;10478361;28;20033;-23
2022/05/16 08:29:03;;;;;;;4.35;2.45;;;;;;;18.64;61.42;96930.19;10493333;28;20028;-23
2022/05/16 08:34:03;;;;;;;3.70;2.97;;;;;;;18.58;61.78;96935.25;10467871;28;20155;-23
2022/05/16 08:44:38;;;;;;;3.58;3.20;;;;;;;18.45;62.53;96961.41;10451640;28;20045;-24
2022/05/16 08:49:56;;;;;;;6.00;3.15;;;;;;;18.44;62.27;96957.16;10451552;28;20029;-22
2022/05/16 08:55:37;;;;;;;6.03;3.00;;;;;;;18.36;62.27;96968.97;10457372;28;20085;-23
2022/05/16 09:00:55;;;;;;;4.85;2.97;;;;;;;18.37;62.55;96965.59;10492153;28;20255;-23
2022/05/16 09:06:01;;;;;;;6.88;3.50;;;;;;;18.33;62.52;96966.44;10464592;28;20059;-23
2022/05/16 09:11:09;;;;;;;;;;;;;;;18.35;62.50;96957.13;10473964;28;20075;-22
2022/05/16 09:16:34;;;;;;;3.83;2.78;;;;;;;18.49;62.23;96956.34;10491404;28;20267;-23
2022/05/16 09:21:55;;;;;;;6.75;2.90;;;;;;;18.69;62.06;96987.72;10458033;28;20060;-23
2022/05/16 09:27:01;;;;;;;4.47;2.63;;;;;;;18.53;62.14;97007.91;10459588;28;20610;-24
2022/05/16 09:32:09;;;;;;;6.60;3.33;;;;;;;18.46;62.87;97021.41;10458957;28;20405;-22
2022/05/16 09:37:10;;;;;;;5.63;2.90;;;;;;;18.45;62.96;97019.69;10491543;28;20669;-23
2022/05/16 09:42:20;;;;;;;5.38;2.88;;;;;;;18.45;63.03;97022.25;10456853;28;20043;-24
2022/05/16 09:47:36;;;;;;;7.28;2.78;;;;;;;18.36;63.54;97045.88;10450042;28;20035;-23
2022/05/16 09:52:45;;;;;;;6.03;2.60;;;;;;;18.38;63.62;97056.84;10449021;28;20086;-24
2022/05/16 09:57:54;;;;;;;4.90;2.63;;;;;;;18.47;63.28;97063.66;10479501;28;20032;-24
2022/05/16 10:03:00;;;;;;;6.97;2.92;;;;;;;18.41;64.10;97064.47;10489650;28;20463;-24
2022/05/16 10:08:05;;;;;;;7.57;3.45;;;;;;;18.37;63.85;97066.97;10449887;28;20076;-23
2022/05/16 10:13:06;;;;;;;4.60;2.85;;;;;;;18.41;64.78;97061.09;10449090;28;20079;-24
2022/05/16 10:18:13;;;;;;;6.40;2.63;;;;;;;18.46;64.33;97051.81;10448983;28;20554;-24
2022/05/16 10:23:27;;;;;;;5.15;2.83;;;;;;;18.37;66.12;97066.97;10468785;28;20068;-24
2022/05/16 10:28:33;;;;;;;4.75;2.35;;;;;;;18.38;67.29;97058.53;10448889;28;20227;-23
2022/05/16 10:33:37;;;;;;;3.67;2.70;;;;;;;18.37;67.26;97057.69;10449086;28;20059;-25
2022/05/16 10:38:43;;;;;;;7.85;3.03;;;;;;;18.43;67.15;97051.81;10452179;28;20040;-23
2022/05/16 10:43:54;;;;;;;4.88;2.80;;;;;;;18.45;67.71;97060.25;10496978;28;20043;-23
2022/05/16 10:49:25;;;;;;;5.95;2.65;;;;;;;18.45;67.10;97052.66;10470131;28;20558;-23
2022/05/16 10:54:29;;;;;;;7.53;2.83;;;;;;;18.41;66.43;97053.50;10452967;28;20136;-23
2022/05/16 10:59:51;;;;;;;8.98;2.65;;;;;;;18.58;64.95;97056.97;10458390;28;20491;-23
2022/05/16 11:05:04;;;;;;;5.95;2.78;;;;;;;18.68;64.99;97049.38;10454637;28;20047;-23
2022/05/16 11:10:26;;;;;;;7.07;2.97;;;;;;;18.60;64.50;97045.13;10470606;28;20150;-23
2022/05/16 11:15:34;;;;;;;5.65;2.65;;;;;;;18.86;63.99;97038.47;10496528;28;20037;-23
2022/05/16 11:20:44;;;;;;;8.05;3.15;;;;;;;18.84;63.39;97035.09;10470281;28;20062;-24
2022/05/16 11:26:16;;;;;;;7.75;4.55;;;;;;;19.07;65.05;97030.91;10454842;28;20155;-23
2022/05/16 11:31:20;;;;;;;8.13;3.55;;;;;;;18.92;63.64;97025.81;10455301;28;20110;-23
2022/05/16 11:36:47;;;;;;;5.82;2.58;;;;;;;18.77;64.10;97024.06;10453620;28;20075;-25
2022/05/16 11:42:12;;;;;;;4.88;2.70;;;;;;;18.80;63.43;97013.09;10453546;28;20029;-24
2022/05/16 11:47:25;;;;;;;4.18;2.45;;;;;;;18.69;63.92;97012.22;10460919;28;20032;-23
2022/05/16 11:52:46;;;;;;;14.38;4.15;;;;;;;19.09;66.15;97008.94;10493586;28;20072;-23
2022/05/16 12:03:06;;;;;;;6.00;3.13;;;;;;;18.65;64.16;96987.66;10469707;28;20037;-23
2022/05/16 12:08:12;;;;;;;6.72;3.03;;;;;;;18.97;64.48;96984.41;10485886;28;20445;-24
2022/05/16 12:13:28;;;;;;;4.45;2.50;;;;;;;18.75;63.91;96976.72;10452975;28;20036;-24
2022/05/16 12:18:39;;;;;;;3.63;2.30;;;;;;;18.62;65.00;96974.97;10452081;28;20091;-23
2022/05/16 12:23:48;;;;;;;4.97;2.53;;;;;;;18.58;65.37;96970.75;10472366;28;20029;-23
2022/05/16 12:29:08;;;;;;;4.88;2.38;;;;;;;18.60;65.22;96964.00;10452281;28;20033;-19
2022/05/16 12:34:08;;;;;;;4.13;2.40;;;;;;;18.77;64.07;96967.44;10451947;28;20029;-23
2022/05/16 12:39:24;;;;;;;4.70;2.60;;;;;;;18.91;65.98;96960.72;10452007;28;20149;-23
2022/05/16 12:44:31;;;;;;;5.53;2.25;;;;;;;18.92;65.56;96954.78;10451521;28;20060;-23
2022/05/16 12:49:56;;;;;;;4.03;2.30;;;;;;;18.70;64.79;96947.97;10481595;28;20032;-23
2022/05/16 12:55:08;;;;;;;4.05;2.40;;;;;;;18.61;65.26;96935.25;10483919;28;20033;-23
2022/05/16 13:00:16;;;;;;;5.82;2.38;;;;;;;18.72;65.25;96941.19;10492369;28;20029;-23
2022/05/16 13:05:40;;;;;;;3.70;1.95;;;;;;;18.74;65.29;96940.34;10454120;28;20040;-24
2022/05/16 13:10:56;;;;;;;7.78;2.92;;;;;;;18.62;65.91;96939.47;10450931;28;20116;-25
2022/05/16 13:16:10;;;;;;;4.13;2.10;;;;;;;18.58;65.98;96930.19;10450518;28;20041;-23
2022/05/16 13:21:15;;;;;;;4.72;2.30;;;;;;;18.64;65.84;96922.56;10477795;28;20086;-23
2022/05/16 13:31:42;;;;;;;4.95;2.40;;;;;;;18.46;64.49;96932.66;10449734;28;20492;-23
2022/05/16 13:36:49;;;;;;;;;;;;;;;18.56;65.59;96926.78;10450004;28;20117;-23
2022/05/16 13:41:57;;;;;;;3.55;2.28;;;;;;;18.53;65.84;96919.16;10478631;28;20132;-23
2022/05/16 13:47:04;;;;;;;3.53;2.28;;;;;;;18.57;65.79;96925.97;10489208;28;20481;-24
2022/05/16 13:52:05;;;;;;;6.15;2.42;;;;;;;18.55;64.96;96914.94;10449214;28;20044;-23
2022/05/16 13:57:08;;;;;;;9.68;2.50;;;;;;;18.79;65.53;96933.63;10473524;28;20454;-22
2022/05/16 14:02:13;;;;;;;3.95;2.83;;;;;;;19.12;65.46;96942.97;10485189;28;20283;-22
2022/05/16 14:07:17;;;;;;;6.53;2.45;;;;;;;19.19;63.91;96947.22;10448987;28;20033;-22
2022/05/16 14:12:27;;;;;;;6.45;2.55;;;;;;;19.04;64.08;96965.81;10449615;28;20063;-22
2022/05/16 14:17:34;;;;;;;9.90;3.05;;;;;;;19.05;64.13;96962.41;10454499;28;20055;-24
2022/05/16 14:22:42;;;;;;;14.00;2.85;;;;;;;19.05;65.84;96959.03;10472457;28;20422;-23
2022/05/16 14:27:56;;;;;;;9.90;2.67;;;;;;;19.02;64.11;96953.94;10460434;28;20033;-23
2022/05/16 14:33:07;;;;;;;10.40;3.00;;;;;;;19.15;67.12;96951.44;10459836;28;20037;-23
2022/05/16 14:38:13;;;;;;;14.50;2.85;;;;;;;19.08;67.25;96953.97;10456213;28;20091;-25
2022/05/16 14:43:33;;;;;;;10.07;3.13;;;;;;;19.13;67.08;96939.56;10497619;28;20037;-24
2022/05/16 14:48:33;;;;;;;10.48;2.60;;;;;;;19.15;67.14;96935.34;10456007;28;20036;-25
2022/05/16 14:53:34;;;;;;;16.63;3.50;;;;;;;19.37;68.06;96937.09;10455404;28;20522;-23
2022/05/16 14:58:37;;;;;;;8.82;2.65;;;;;;;19.45;66.90;96941.31;10492365;28;20306;-22
2022/05/16 15:08:58;;;;;;;6.15;2.63;;;;;;;19.26;65.63;96916.75;10455427;28;20021;-20
2022/05/16 15:13:59;;;;;;;15.02;2.20;;;;;;;19.00;64.48;96918.41;10455216;28;20056;-24
2022/05/16 15:18:59;;;;;;;9.27;2.80;;;;;;;19.20;66.07;96915.94;10454922;28;20478;-22
2022/05/16 15:24:03;;;;;;;4.35;2.03;;;;;;;18.94;64.16;96920.09;10459574;28;20032;-22
2022/05/16 15:29:03;;;;;;;11.00;3.15;;;;;;;19.25;68.54;96924.41;10495585;28;20310;-24
2022/05/16 15:34:04;;;;;;;6.60;2.50;;;;;;;18.96;64.54;96913.34;10482263;28;20041;-26
2022/05/16 15:39:10;;;;;;;4.10;2.63;;;;;;;18.93;66.36;96908.28;10453663;28;20315;-23
2022/05/16 15:44:10;;;;;;;5.60;2.30;;;;;;;18.77;65.41;96916.69;10453378;28;20119;-24
2022/05/16 15:49:10;;;;;;;5.73;1.93;;;;;;;18.96;65.45;96928.56;10452911;28;20051;-23
2022/05/16 15:54:11;;;;;;;2.87;2.03;;;;;;;19.22;67.33;96926.91;10453343;28;20036;-24
2022/05/16 15:59:12;;;;;;;5.57;2.30;;;;;;;19.34;64.65;96932.00;10494450;28;20122;-24
2022/05/16 16:09:31;;;;;;;7.20;2.40;;;;;;;19.10;64.56;96942.13;10452790;28;20025;-23
2022/05/16 16:14:31;;;;;;;6.13;2.22;;;;;;;19.17;64.79;96937.03;10452225;28;20066;-23
2022/05/16 16:19:39;;;;;;;6.30;2.35;;;;;;;19.13;63.96;96937.03;10478359;28;20098;-22
2022/05/16 16:24:40;;;;;;;6.65;2.65;;;;;;;19.04;65.80;96929.41;10491676;28;20037;-23
2022/05/16 16:29:40;;;;;;;4.70;2.75;;;;;;;19.18;67.25;96930.28;10493724;28;20037;-23
2022/05/16 16:34:41;;;;;;;2.43;2.10;;;;;;;18.90;63.49;96934.47;10462497;28;20033;-23
2022/05/16 16:39:41;;;;;;;4.07;1.80;;;;;;;18.78;64.32;96934.47;10462525;28;20035;-22
2022/05/16 16:44:41;;;;;;;2.30;1.77;;;;;;;18.80;64.08;96926.84;10492154;28;20038;-23
2022/05/16 16:49:42;;;;;;;4.30;2.10;;;;;;;19.15;66.08;96928.59;10468784;28;20040;-22
2022/05/16 17:00:07;;;;;;;4.35;2.03;;;;;;;18.84;63.78;96934.44;10461429;28;20429;-23
2022/05/16 17:05:12;;;;;;;3.80;1.90;;;;;;;18.81;65.18;96943.75;10450716;28;20062;-23
2022/05/16 17:10:19;;;;;;;7.53;2.20;;;;;;;18.86;63.89;96942.06;10450774;28;20043;-23
2022/05/16 17:15:21;;;;;;;4.32;2.30;;;;;;;18.66;64.85;96953.88;10451555;28;20036;-23
2022/05/16 17:20:22;;;;;;;6.30;1.95;;;;;;;18.69;64.59;96953.88;10449874;28;20037;-24
2022/05/16 17:25:22;;;;;;;8.15;2.13;;;;;;;18.68;65.14;96937.78;10486889;28;20483;-24
2022/05/16 17:30:23;;;;;;;5.87;1.97;;;;;;;18.70;65.14;96961.50;10491423;28;20026;-23
2022/05/16 17:35:23;;;;;;;3.77;2.10;;;;;;;18.72;64.83;96961.47;10453692;28;20298;-24
2022/05/16 17:40:24;;;;;;;3.72;1.70;;;;;;;18.72;64.49;96958.94;10472167;28;20369;-23
2022/05/16 17:45:25;;;;;;;2.63;1.67;;;;;;;18.84;64.56;96974.22;10449070;28;20055;-22
2022/05/16 17:50:26;;;;;;;2.58;1.90;;;;;;;18.87;63.68;96972.53;10473662;28;20297;-23
2022/05/16 17:55:27;;;;;;;3.28;1.98;;;;;;;18.89;63.49;96980.13;10473934;28;20033;-23
2022/05/16 18:00:29;;;;;;;2.70;1.73;;;;;;;18.77;63.94;96978.41;10475753;28;20040;-23
2022/05/16 18:05:30;;;;;;;2.97;1.80;;;;;;;18.73;64.44;96991.06;10478260;28;20059;-22
2022/05/16 18:12:41;;;;;;;4.28;1.98;;;;;;;18.74;64.06;96982.66;10468935;28;20033;-23
2022/05/16 18:15:54;;;;;;;36.80;4.05;;;;;;;18.76;64.41;96991.09;10456668;28;20029;-24
2022/05/16 18:20:54;;;;;;;23.52;3.40;;;;;;;18.75;64.06;96994.47;10458219;28;20079;-24
2022/05/16 18:25:55;;;;;;;10.15;2.60;;;;;;;18.62;64.34;96991.06;10479795;28;20024;-23
2022/05/16 18:30:57;;;;;;;7.30;2.33;;;;;;;18.73;64.84;97011.34;10470659;28;20051;-25
2022/05/16 18:35:58;;;;;;;4.72;2.28;;;;;;;18.65;64.70;97016.41;10477812;28;20307;-22
2022/05/16 18:40:58;;;;;;;4.23;2.17;;;;;;;18.54;65.98;97025.69;10455796;28;20045;-23
2022/05/16 18:51:18;;;;;;;6.18;2.33;;;;;;;18.74;65.00;97038.44;10469706;28;20040;-24
2022/05/16 18:56:22;;;;;;;6.43;2.80;;;;;;;18.70;65.72;97044.34;10455464;28;20037;-24
2022/05/16 19:01:24;;;;;;;8.03;2.70;;;;;;;18.67;66.50;97051.94;10453330;28;20391;-24
2022/05/16 19:06:25;;;;;;;5.30;2.08;;;;;;;18.64;65.85;97062.03;10451265;28;20037;-23
2022/05/16 19:11:35;;;;;;;4.55;2.17;;;;;;;18.63;66.35;97070.50;10450852;28;20664;-23
2022/05/16 19:16:35;;;;;;;3.47;2.13;;;;;;;18.61;66.98;97067.13;10450698;28;20036;-23
2022/05/16 19:21:39;;;;;;;4.83;2.50;;;;;;;18.58;66.66;97062.03;10458520;28;20153;-23
2022/05/16 19:26:40;;;;;;;5.53;2.53;;;;;;;18.64;66.71;97087.41;10462208;28;20064;-24
2022/05/16 19:31:58;;;;;;;7.38;2.55;;;;;;;18.67;66.81;97095.06;10468700;28;20539;-23
2022/05/16 19:37:00;;;;;;;3.90;2.53;;;;;;;18.62;66.70;97102.63;10449529;28;20045;-24
2022/05/16 19:42:01;;;;;;;7.38;2.50;;;;;;;18.68;66.56;97109.44;10449665;28;20483;-23
2022/05/16 19:47:01;;;;;;;5.05;3.03;;;;;;;18.74;65.66;97114.53;10449746;28;20033;-24
2022/05/16 19:52:04;;;;;;;7.30;2.50;;;;;;;18.70;67.35;97117.88;10449397;28;20120;-23
2022/05/16 19:57:06;;;;;;;4.88;2.42;;;;;;;18.63;67.72;97121.22;10447989;28;20496;-24
2022/05/16 20:02:08;;;;;;;5.88;2.92;;;;;;;18.60;67.55;97128.81;10448763;28;20043;-24
2022/05/16 20:07:09;;;;;;;4.10;1.95;;;;;;;18.59;67.62;97129.66;10448748;28;20028;-23
2022/05/16 20:12:10;;;;;;;6.80;2.50;;;;;;;18.58;67.52;97138.13;10447727;28;20037;-23
2022/05/16 20:17:10;;;;;;;4.07;1.98;;;;;;;18.57;67.10;97136.41;10447598;28;20685;-23
2022/05/16 20:27:30;;;;;;;4.45;2.53;;;;;;;18.53;67.67;97143.16;10430213;28;20040;-25
2022/05/16 20:32:31;;;;;;;6.28;2.80;;;;;;;18.51;66.99;97141.44;10423820;28;20126;-24
2022/05/16 20:37:31;;;;;;;4.13;2.30;;;;;;;18.56;66.89;97144.84;10450671;28;20123;-22
2022/05/16 20:42:31;;;;;;;4.60;2.10;;;;;;;18.64;65.70;97145.72;10449209;28;20032;-23
2022/05/16 20:47:32;;;;;;;4.10;2.03;;;;;;;18.60;66.08;97151.63;10451549;28;20036;-23
2022/05/16 20:52:32;;;;;;;3.08;1.90;;;;;;;18.62;65.90;97170.25;10450783;28;20548;-23
2022/05/16 20:57:34;;;;;;;4.32;2.25;;;;;;;18.53;66.07;97162.59;10450828;28;20522;-23
2022/05/16 21:02:35;;;;;;;4.50;2.15;;;;;;;18.39;65.98;97147.28;10450352;28;20047;-23
2022/05/16 21:07:35;;;;;;;3.80;2.13;;;;;;;18.39;66.07;97147.28;10450794;28;20037;-23
2022/05/16 21:12:37;;;;;;;6.85;2.55;;;;;;;18.41;65.82;97165.03;10481623;28;20036;-24
2022/05/16 21:17:37;;;;;;;5.40;2.20;;;;;;;18.45;65.58;97161.69;10491827;28;20070;-23
2022/05/16 21:22:38;;;;;;;8.05;2.25;;;;;;;18.40;65.81;97153.22;10473335;28;20033;-24
2022/05/16 21:27:40;;;;;;;4.53;3.03;;;;;;;18.39;65.74;97151.47;10453605;28;20024;-24
2022/05/16 21:32:41;;;;;;;3.92;2.08;;;;;;;18.36;65.66;97157.41;10473317;28;20029;-23
2022/05/16 21:37:41;;;;;;;4.30;2.15;;;;;;;18.47;65.13;97160.00;10450157;28;20427;-23
2022/05/16 21:42:42;;;;;;;6.00;2.97;;;;;;;18.54;64.89;97151.59;10449627;28;20033;-24
2022/05/16 21:47:43;;;;;;;5.20;2.13;;;;;;;18.37;65.06;97143.03;10449492;28;20039;-23
2022/05/16 21:52:44;;;;;;;4.30;2.28;;;;;;;18.39;64.78;97152.34;10449527;28;20484;-24
2022/05/16 21:57:46;;;;;;;5.03;2.20;;;;;;;18.37;65.31;97148.09;10486324;28;20040;-22
2022/05/16 22:02:47;;;;;;;2.72;2.30;;;;;;;18.35;65.55;97159.91;10474109;28;20635;-23
2022/05/16 22:07:47;;;;;;;4.70;2.38;;;;;;;18.34;65.58;97153.97;10449892;28;20029;-24
2022/05/16 22:12:48;;;;;;;4.37;1.90;;;;;;;18.34;65.08;97153.97;10448201;28;20400;-24
2022/05/16 22:17:49;;;;;;;6.10;2.13;;;;;;;18.35;65.05;97159.91;10462724;28;20043;-24
2022/05/16 22:22:49;;;;;;;5.00;2.22;;;;;;;18.31;65.06;97150.56;10479937;28;20071;-24
2022/05/16 22:27:51;;;;;;;5.10;2.20;;;;;;;18.28;65.07;97151.41;10451302;28;20029;-23
2022/05/16 22:32:51;;;;;;;3.72;2.58;;;;;;;18.28;65.03;97142.94;10478572;28;20091;-24
2022/05/16 22:37:52;;;;;;;6.07;2.70;;;;;;;18.40;64.44;97141.38;10452396;28;20033;-23
2022/05/16 22:42:52;;;;;;;6.05;2.10;;;;;;;18.48;64.11;97147.34;10494085;28;20077;-22
2022/05/16 22:47:53;;;;;;;3.23;1.93;;;;;;;18.31;64.49;97140.44;10482092;28;20090;-23
2022/05/16 22:52:53;;;;;;;5.65;2.08;;;;;;;18.31;64.51;97146.38;10456162;28;20431;-23
2022/05/16 22:57:53;;;;;;;6.03;2.13;;;;;;;18.29;64.34;97154.75;10455948;28;20041;-23
2022/05/16 23:08:13;;;;;;;5.75;2.65;;;;;;;18.25;64.65;97148.81;10492035;28;20070;-24
2022/05/16 23:13:14;;;;;;;5.13;2.03;;;;;;;18.22;64.59;97142.88;10454395;28;20052;-24
2022/05/16 23:18:14;;;;;;;5.23;2.40;;;;;;;18.22;64.64;97140.34;10455215;28;20662;-23
2022/05/16 23:23:15;;;;;;;4.93;2.47;;;;;;;18.22;64.42;97137.81;10474260;28;20068;-23
2022/05/16 23:28:17;;;;;;;7.90;1.97;;;;;;;18.20;64.44;97135.28;10455501;28;20024;-23
2022/05/16 23:33:17;;;;;;;3.25;2.30;;;;;;;18.28;64.11;97137.84;10481038;28;20298;-24
2022/05/16 23:38:18;;;;;;;4.80;1.93;;;;;;;18.38;63.85;97137.97;10453658;28;20047;-23
2022/05/16 23:43:18;;;;;;;3.47;2.17;;;;;;;18.33;63.84;97136.25;10453418;28;20446;-23
2022/05/16 23:48:19;;;;;;;3.20;2.08;;;;;;;18.27;63.92;97153.91;10453720;28;20651;-23
2022/05/16 23:53:20;;;;;;;3.97;1.93;;;;;;;18.25;64.00;97147.97;10453917;28;20446;-23
2022/05/16 23:58:21;;;;;;;5.43;1.70;;;;;;;18.25;63.84;97142.91;10453082;28;20032;-24
